createdAt,value
2019-05-25T00:00:12.650Z,23.63
2019-05-25T00:02:42.390Z,25.40
2019-05-25T00:05:12.383Z,22.80
2019-05-25T00:07:43.526Z,23.17
2019-05-25T00:10:15.775Z,22.83
2019-05-25T00:12:46.289Z,23.27
2019-05-25T00:15:19.391Z,21.27
2019-05-25T00:17:50.354Z,21.20
2019-05-25T00:20:22.781Z,20.57
2019-05-25T00:22:54.367Z,20.67
2019-05-25T00:25:27.834Z,20.03
2019-05-25T00:27:59.685Z,20.53
2019-05-25T00:30:31.556Z,20.70
2019-05-25T00:33:01.033Z,19.57
2019-05-25T00:35:30.551Z,19.50
2019-05-25T00:38:00.121Z,20.73
2019-05-25T00:40:29.613Z,19.57
2019-05-25T00:42:59.062Z,19.77
2019-05-25T00:45:28.538Z,19.23
2019-05-25T00:47:58.024Z,20.07
2019-05-25T00:50:27.596Z,19.87
2019-05-25T00:52:57.509Z,19.00
2019-05-25T00:55:27.014Z,19.67
2019-05-25T00:57:56.798Z,19.17
2019-05-25T01:00:26.260Z,18.63
2019-05-25T01:02:55.762Z,19.90
2019-05-25T01:05:25.933Z,19.40
2019-05-25T01:07:56.220Z,19.33
2019-05-25T01:10:26.260Z,19.80
2019-05-25T01:12:56.123Z,18.87
2019-05-25T01:15:25.838Z,19.97
2019-05-25T01:17:55.476Z,18.50
2019-05-25T01:20:26.355Z,19.80
2019-05-25T01:22:56.171Z,19.63
2019-05-25T01:25:25.957Z,20.63
2019-05-25T01:27:55.473Z,20.23
2019-05-25T01:30:25.094Z,19.90
2019-05-25T01:32:54.930Z,18.60
2019-05-25T01:35:24.856Z,20.30
2019-05-25T01:37:54.701Z,20.23
2019-05-25T01:40:24.352Z,18.57
2019-05-25T01:42:53.995Z,18.53
2019-05-25T01:45:23.800Z,18.97
2019-05-25T01:47:53.770Z,19.27
2019-05-25T01:50:23.305Z,19.27
2019-05-25T01:52:52.954Z,19.20
2019-05-25T01:55:22.598Z,19.77
2019-05-25T01:57:52.509Z,19.47
2019-05-25T02:00:22.319Z,18.00
2019-05-25T02:02:51.881Z,18.37
2019-05-25T02:05:21.347Z,18.10
2019-05-25T02:07:50.827Z,17.73
2019-05-25T02:10:20.294Z,18.63
2019-05-25T02:12:49.790Z,17.90
2019-05-25T02:15:19.520Z,17.80
2019-05-25T02:17:49.276Z,17.50
2019-05-25T02:20:19.272Z,17.50
2019-05-25T02:22:48.915Z,18.70
2019-05-25T02:25:19.171Z,19.03
2019-05-25T02:27:49.021Z,19.43
2019-05-25T02:30:18.812Z,18.10
2019-05-25T02:32:48.872Z,19.27
2019-05-25T02:35:27.147Z,18.07
2019-05-25T02:37:57.345Z,17.23
2019-05-25T02:40:26.797Z,17.43
2019-05-25T02:42:56.457Z,17.27
2019-05-25T02:45:25.967Z,18.53
2019-05-25T02:47:55.443Z,17.53
2019-05-25T02:50:24.914Z,17.47
2019-05-25T02:52:54.686Z,17.97
2019-05-25T02:55:33.832Z,18.00
2019-05-25T02:57:55.606Z,18.90
2019-05-25T03:00:34.662Z,17.87
2019-05-25T03:03:04.377Z,18.90
2019-05-25T03:05:33.834Z,19.37
2019-05-25T03:08:03.462Z,19.37
2019-05-25T03:10:33.405Z,18.93
2019-05-25T03:13:03.414Z,18.70
2019-05-25T03:15:32.970Z,19.80
2019-05-25T03:18:02.459Z,19.97
2019-05-25T03:20:31.927Z,21.70
2019-05-25T03:23:01.974Z,21.47
2019-05-25T03:25:31.579Z,21.93
2019-05-25T03:28:01.115Z,22.07
2019-05-25T03:30:35.950Z,22.33
2019-05-25T03:33:05.589Z,21.70
2019-05-25T03:35:35.074Z,21.50
2019-05-25T03:38:04.646Z,22.00
2019-05-25T03:40:34.165Z,21.70
2019-05-25T03:43:03.648Z,22.37
2019-05-25T03:45:33.894Z,22.67
2019-05-25T03:48:03.355Z,22.73
2019-05-25T03:50:32.805Z,22.60
2019-05-25T03:53:02.449Z,22.77
2019-05-25T03:55:32.661Z,22.23
2019-05-25T03:58:02.130Z,21.93
2019-05-25T04:00:33.970Z,23.47
2019-05-25T04:03:03.992Z,23.30
2019-05-25T04:05:33.457Z,22.87
2019-05-25T04:08:02.922Z,21.20
2019-05-25T04:10:32.379Z,21.93
2019-05-25T04:13:01.933Z,21.87
2019-05-25T04:15:31.811Z,23.17
2019-05-25T04:18:01.586Z,23.43
2019-05-25T04:20:31.063Z,21.80
2019-05-25T04:23:00.574Z,21.80
2019-05-25T04:25:30.086Z,22.33
2019-05-25T04:27:59.630Z,22.20
2019-05-25T04:30:29.173Z,21.13
2019-05-25T04:32:58.598Z,21.17
2019-05-25T04:35:28.055Z,19.50
2019-05-25T04:37:57.551Z,21.07
2019-05-25T04:40:27.079Z,19.93
2019-05-25T04:42:56.803Z,19.80
2019-05-25T04:45:26.261Z,20.03
2019-05-25T04:47:55.783Z,19.30
2019-05-25T04:50:25.497Z,20.50
2019-05-25T04:52:54.971Z,18.47
2019-05-25T04:55:24.449Z,18.20
2019-05-25T04:57:54.027Z,18.73
2019-05-25T05:00:23.521Z,17.90
2019-05-25T05:02:53.015Z,16.67
2019-05-25T05:05:22.750Z,17.80
2019-05-25T05:07:52.686Z,17.40
2019-05-25T05:10:22.160Z,16.90
2019-05-25T05:12:51.609Z,18.07
2019-05-25T05:15:21.123Z,17.00
2019-05-25T05:17:50.619Z,15.73
2019-05-25T05:20:20.480Z,15.33
2019-05-25T05:22:50.009Z,15.90
2019-05-25T05:25:19.818Z,15.90
2019-05-25T05:27:50.301Z,15.50
2019-05-25T05:30:31.538Z,15.33
2019-05-25T05:33:01.086Z,15.07
2019-05-25T05:35:31.127Z,15.90
2019-05-25T05:38:23.396Z,14.03
2019-05-25T05:40:53.837Z,13.90
2019-05-25T05:43:24.760Z,13.07
2019-05-25T05:45:54.689Z,13.70
2019-05-25T05:48:25.887Z,14.10
2019-05-25T05:50:58.523Z,13.60
2019-05-25T05:53:28.278Z,14.70
2019-05-25T05:55:57.757Z,14.75
2019-05-25T05:58:27.235Z,13.93
2019-05-25T06:00:56.857Z,14.00
2019-05-25T06:03:26.336Z,13.70
2019-05-25T06:05:55.867Z,13.70
2019-05-25T06:08:25.330Z,12.90
2019-05-25T06:10:54.817Z,13.62
2019-05-25T06:13:24.450Z,13.40
2019-05-25T06:15:55.991Z,10.32
2019-05-25T06:18:25.145Z,8.13
2019-05-25T06:20:54.617Z,8.43
2019-05-25T06:23:24.086Z,6.83
2019-05-25T06:25:53.576Z,6.00
2019-05-25T06:28:23.022Z,5.25
2019-05-25T06:30:53.305Z,5.62
2019-05-25T06:33:22.920Z,5.60
2019-05-25T06:35:52.786Z,6.03
2019-05-25T06:38:22.242Z,6.15
2019-05-25T06:40:51.743Z,6.47
2019-05-25T06:43:21.254Z,6.12
2019-05-25T06:45:50.743Z,6.22
2019-05-25T06:48:20.190Z,6.75
2019-05-25T06:50:49.689Z,5.95
2019-05-25T06:53:19.256Z,5.40
2019-05-25T06:55:49.061Z,4.85
2019-05-25T06:58:19.083Z,4.85
2019-05-25T07:00:51.818Z,5.00
2019-05-25T07:03:21.616Z,4.50
2019-05-25T07:05:51.333Z,3.40
2019-05-25T07:08:20.777Z,3.87
2019-05-25T07:10:50.680Z,3.75
2019-05-25T07:13:20.124Z,4.47
2019-05-25T07:15:49.607Z,3.95
2019-05-25T07:18:19.415Z,3.77
2019-05-25T07:20:48.886Z,4.22
2019-05-25T07:23:18.359Z,4.22
2019-05-25T07:25:47.822Z,4.42
2019-05-25T07:28:17.276Z,4.60
2019-05-25T07:30:47.311Z,3.60
2019-05-25T07:33:16.889Z,3.58
2019-05-25T07:35:46.736Z,3.40
2019-05-25T07:38:16.202Z,3.17
2019-05-25T07:40:45.973Z,3.10
2019-05-25T07:43:15.423Z,3.75
2019-05-25T07:45:44.896Z,3.87
2019-05-25T07:48:14.629Z,4.40
2019-05-25T07:50:44.076Z,5.20
2019-05-25T07:53:13.538Z,5.35
2019-05-25T07:55:43.246Z,4.72
2019-05-25T07:58:17.208Z,5.15
2019-05-25T08:00:43.981Z,5.72
2019-05-25T08:03:13.818Z,6.20
2019-05-25T08:05:43.295Z,7.20
2019-05-25T08:08:12.755Z,5.50
2019-05-25T08:10:42.532Z,7.10
2019-05-25T08:13:11.990Z,7.00
2019-05-25T08:15:41.553Z,6.83
2019-05-25T08:18:11.759Z,6.42
2019-05-25T08:20:41.375Z,5.87
2019-05-25T08:23:10.838Z,5.78
2019-05-25T08:25:40.285Z,6.70
2019-05-25T08:28:09.806Z,6.40
2019-05-25T08:30:39.670Z,6.30
2019-05-25T08:33:09.357Z,5.83
2019-05-25T08:35:38.895Z,5.47
2019-05-25T08:38:08.357Z,5.42
2019-05-25T08:40:37.795Z,5.10
2019-05-25T08:43:07.277Z,5.60
2019-05-25T08:45:37.068Z,5.60
2019-05-25T08:48:06.778Z,5.35
2019-05-25T08:50:38.698Z,4.72
2019-05-25T08:53:07.879Z,4.50
2019-05-25T08:55:37.723Z,4.40
2019-05-25T08:58:07.256Z,4.30
2019-05-25T09:00:36.718Z,3.83
2019-05-25T09:03:06.206Z,3.83
2019-05-25T09:05:35.656Z,3.77
2019-05-25T09:08:05.118Z,3.62
2019-05-25T09:10:34.815Z,3.65
2019-05-25T09:13:04.280Z,3.55
2019-05-25T09:15:34.096Z,3.77
2019-05-25T09:18:03.542Z,3.90
2019-05-25T09:20:32.985Z,4.20
2019-05-25T09:23:02.476Z,3.80
2019-05-25T09:25:32.173Z,3.77
2019-05-25T09:28:01.737Z,3.55
2019-05-25T09:30:31.213Z,3.77
2019-05-25T09:33:01.271Z,3.70
2019-05-25T09:35:30.798Z,3.27
2019-05-25T09:38:00.373Z,3.83
2019-05-25T09:40:29.797Z,4.40
2019-05-25T09:42:59.282Z,3.90
2019-05-25T09:45:28.734Z,4.08
2019-05-25T09:47:58.594Z,4.45
2019-05-25T09:50:28.405Z,4.17
2019-05-25T09:52:57.890Z,4.55
2019-05-25T09:55:27.359Z,3.92
2019-05-25T09:57:56.833Z,3.83
2019-05-25T10:00:26.697Z,3.83
2019-05-25T10:02:56.625Z,4.25
2019-05-25T10:05:26.531Z,3.75
2019-05-25T10:07:56.153Z,4.05
2019-05-25T10:10:25.670Z,4.37
2019-05-25T10:12:55.148Z,3.52
2019-05-25T10:15:28.301Z,3.67
2019-05-25T10:17:56.425Z,3.80
2019-05-25T10:20:26.182Z,3.90
2019-05-25T10:22:55.665Z,4.10
2019-05-25T10:25:25.398Z,3.60
2019-05-25T10:27:54.866Z,4.00
2019-05-25T10:30:24.521Z,3.60
2019-05-25T10:32:54.658Z,4.22
2019-05-25T10:35:24.113Z,3.90
2019-05-25T10:37:53.587Z,3.20
2019-05-25T10:40:23.172Z,3.95
2019-05-25T10:42:52.652Z,3.45
2019-05-25T10:45:22.292Z,3.80
2019-05-25T10:47:52.094Z,4.28
2019-05-25T10:50:21.704Z,3.98
2019-05-25T10:52:51.197Z,4.80
2019-05-25T10:55:21.523Z,4.80
2019-05-25T10:57:51.335Z,4.83
2019-05-25T11:00:21.876Z,4.45
2019-05-25T11:02:51.806Z,4.80
2019-05-25T11:05:21.344Z,5.50
2019-05-25T11:07:50.794Z,5.37
2019-05-25T11:10:20.898Z,4.72
2019-05-25T11:12:51.068Z,5.53
2019-05-25T11:15:20.929Z,5.10
2019-05-25T11:17:50.838Z,5.20
2019-05-25T11:20:20.827Z,5.00
2019-05-25T11:22:50.288Z,5.70
2019-05-25T11:25:19.763Z,5.55
2019-05-25T11:27:49.213Z,6.35
2019-05-25T11:30:19.883Z,7.67
2019-05-25T11:32:49.876Z,5.87
2019-05-25T11:35:19.421Z,5.67
2019-05-25T11:37:48.876Z,5.80
2019-05-25T11:40:19.981Z,6.28
2019-05-25T11:42:49.516Z,5.83
2019-05-25T11:45:19.385Z,5.20
2019-05-25T11:47:50.582Z,5.37
2019-05-25T11:50:20.115Z,6.45
2019-05-25T11:52:49.583Z,6.37
2019-05-25T11:55:19.312Z,6.42
2019-05-25T11:57:48.902Z,6.25
2019-05-25T12:00:25.265Z,5.85
2019-05-25T12:02:53.176Z,7.40
2019-05-25T12:05:22.787Z,7.10
2019-05-25T12:07:52.562Z,6.37
2019-05-25T12:10:22.168Z,6.53
2019-05-25T12:12:51.797Z,6.08
2019-05-25T12:15:21.951Z,6.42
2019-05-25T12:17:51.991Z,6.60
2019-05-25T12:20:22.359Z,6.53
2019-05-25T12:22:52.388Z,6.50
2019-05-25T12:25:22.011Z,7.03
2019-05-25T12:27:51.774Z,6.50
2019-05-25T12:30:21.815Z,6.70
2019-05-25T12:32:51.330Z,6.42
2019-05-25T12:35:21.035Z,7.05
2019-05-25T12:37:50.617Z,6.97
2019-05-25T12:40:20.635Z,8.45
2019-05-25T12:42:50.875Z,7.35
2019-05-25T12:45:20.785Z,6.03
2019-05-25T12:47:50.236Z,7.15
2019-05-25T12:50:20.021Z,6.62
2019-05-25T12:52:49.496Z,5.70
2019-05-25T12:55:19.112Z,6.35
2019-05-25T12:57:51.403Z,6.00
2019-05-25T13:00:20.187Z,5.78
2019-05-25T13:02:49.700Z,5.83
2019-05-25T13:05:32.947Z,6.35
2019-05-25T13:07:50.670Z,5.60
2019-05-25T13:10:20.522Z,6.67
2019-05-25T13:12:50.082Z,8.23
2019-05-25T13:15:19.553Z,6.53
2019-05-25T13:17:49.020Z,5.58
2019-05-25T13:20:18.643Z,6.33
2019-05-25T13:22:48.095Z,7.30
2019-05-25T13:25:17.837Z,5.28
2019-05-25T13:27:47.295Z,5.67
2019-05-25T13:30:17.413Z,6.10
2019-05-25T13:32:46.839Z,6.33
2019-05-25T13:35:16.463Z,5.58
2019-05-25T13:37:45.928Z,5.33
2019-05-25T13:40:15.752Z,5.35
2019-05-25T13:42:45.860Z,5.08
2019-05-25T13:45:15.797Z,4.83
2019-05-25T13:47:45.611Z,5.62
2019-05-25T13:50:15.467Z,5.72
2019-05-25T13:52:44.942Z,6.35
2019-05-25T13:55:14.861Z,6.42
2019-05-25T13:57:44.326Z,6.35
2019-05-25T14:00:16.440Z,7.47
2019-05-25T14:02:45.937Z,7.00
2019-05-25T14:05:15.649Z,6.35
2019-05-25T14:07:45.114Z,5.60
2019-05-25T14:10:14.898Z,6.60
2019-05-25T14:12:44.680Z,7.85
2019-05-25T14:15:14.506Z,6.60
2019-05-25T14:17:43.989Z,7.70
2019-05-25T14:20:13.787Z,7.12
2019-05-25T14:22:46.891Z,6.53
2019-05-25T14:25:15.283Z,7.60
2019-05-25T14:27:44.955Z,6.42
2019-05-25T14:30:14.802Z,8.08
2019-05-25T14:32:44.298Z,7.28
2019-05-25T14:35:14.523Z,7.30
2019-05-25T14:37:44.018Z,6.83
2019-05-25T14:40:14.054Z,7.87
2019-05-25T14:42:43.548Z,7.92
2019-05-25T14:45:13.640Z,8.13
2019-05-25T14:47:43.111Z,9.33
2019-05-25T14:50:12.855Z,8.60
2019-05-25T14:52:43.508Z,8.05
2019-05-25T14:55:14.056Z,9.33
2019-05-25T14:57:43.522Z,9.25
2019-05-25T15:00:14.754Z,8.25
2019-05-25T15:02:44.611Z,8.40
2019-05-25T15:05:16.519Z,8.88
2019-05-25T15:07:46.070Z,9.73
2019-05-25T15:10:15.697Z,9.93
2019-05-25T15:12:45.170Z,10.55
2019-05-25T15:15:14.985Z,9.70
2019-05-25T15:17:44.575Z,10.58
2019-05-25T15:20:15.700Z,11.08
2019-05-25T15:22:46.999Z,11.28
2019-05-25T15:25:16.618Z,11.78
2019-05-25T15:27:46.095Z,10.03
2019-05-25T15:30:16.297Z,10.20
2019-05-25T15:32:45.818Z,12.37
2019-05-25T15:35:15.357Z,11.28
2019-05-25T15:37:45.049Z,11.53
2019-05-25T15:40:15.007Z,12.15
2019-05-25T15:42:44.469Z,11.57
2019-05-25T15:45:14.110Z,12.40
2019-05-25T15:47:43.602Z,12.37
2019-05-25T15:50:15.168Z,12.95
2019-05-25T15:52:44.642Z,13.28
2019-05-25T15:55:14.379Z,12.68
2019-05-25T15:57:43.865Z,12.50
2019-05-25T16:00:20.226Z,13.35
2019-05-25T16:02:49.824Z,13.18
2019-05-25T16:05:19.490Z,14.33
2019-05-25T16:07:50.969Z,15.53
2019-05-25T16:10:20.862Z,15.25
2019-05-25T16:12:50.341Z,14.78
2019-05-25T16:15:27.619Z,15.15
2019-05-25T16:17:57.221Z,15.40
2019-05-25T16:20:26.704Z,15.55
2019-05-25T16:22:56.481Z,16.07
2019-05-25T16:25:26.486Z,15.60
2019-05-25T16:27:56.061Z,17.73
2019-05-25T16:30:26.315Z,17.17
2019-05-25T16:33:13.716Z,16.23
2019-05-25T16:35:27.152Z,17.00
2019-05-25T16:37:57.137Z,15.38
2019-05-25T16:40:26.703Z,15.10
2019-05-25T16:42:56.532Z,16.73
2019-05-25T16:45:26.349Z,16.25
2019-05-25T16:47:55.941Z,17.52
2019-05-25T16:50:25.454Z,16.65
2019-05-25T16:52:55.110Z,18.45
2019-05-25T16:55:24.618Z,18.00
2019-05-25T16:57:54.159Z,14.90
2019-05-25T17:00:32.391Z,17.30
2019-05-25T17:03:02.224Z,17.23
2019-05-25T17:05:32.139Z,15.83
2019-05-25T17:08:01.731Z,18.17
2019-05-25T17:10:31.188Z,16.07
2019-05-25T17:13:00.658Z,15.30
2019-05-25T17:15:30.147Z,15.50
2019-05-25T17:17:59.635Z,15.35
2019-05-25T17:20:29.096Z,14.73
2019-05-25T17:22:58.557Z,14.15
2019-05-25T17:25:28.407Z,14.58
2019-05-25T17:27:57.867Z,14.18
2019-05-25T17:30:42.763Z,12.78
2019-05-25T17:33:12.253Z,12.67
2019-05-25T17:35:42.065Z,10.75
2019-05-25T17:38:11.596Z,11.50
2019-05-25T17:40:41.148Z,11.28
2019-05-25T17:43:10.604Z,11.93
2019-05-25T17:45:40.093Z,10.85
2019-05-25T17:48:09.882Z,15.70
2019-05-25T17:50:39.381Z,12.10
2019-05-25T17:53:09.034Z,11.00
2019-05-25T17:55:38.614Z,10.57
2019-05-25T17:58:08.064Z,10.93
2019-05-25T18:00:40.012Z,9.97
2019-05-25T18:03:09.596Z,10.30
2019-05-25T18:05:39.097Z,8.43
2019-05-25T18:08:09.245Z,9.33
2019-05-25T18:10:52.230Z,8.60
2019-05-25T18:13:09.892Z,9.23
2019-05-25T18:15:39.516Z,8.70
2019-05-25T18:18:08.983Z,9.10
2019-05-25T18:20:38.466Z,8.53
2019-05-25T18:23:07.913Z,9.00
2019-05-25T18:25:37.377Z,9.30
2019-05-25T18:28:07.008Z,9.60
2019-05-25T18:30:36.656Z,9.30
2019-05-25T18:33:06.675Z,9.13
2019-05-25T18:35:36.159Z,8.97
2019-05-25T18:38:05.603Z,8.50
2019-05-25T18:40:35.075Z,9.23
2019-05-25T18:43:04.630Z,8.20
2019-05-25T18:45:34.092Z,8.23
2019-05-25T18:48:04.428Z,9.03
2019-05-25T18:50:33.896Z,9.27
2019-05-25T18:53:03.376Z,9.17
2019-05-25T18:55:33.041Z,10.20
2019-05-25T18:58:02.788Z,13.33
2019-05-25T19:00:32.612Z,12.53
2019-05-25T19:03:02.071Z,12.17
2019-05-25T19:05:31.809Z,13.73
2019-05-25T19:08:01.274Z,9.97
2019-05-25T19:10:30.741Z,9.57
2019-05-25T19:13:00.202Z,9.47
2019-05-25T19:15:29.664Z,9.47
2019-05-25T19:17:59.485Z,9.30
2019-05-25T19:20:29.290Z,9.60
2019-05-25T19:22:58.729Z,9.23
2019-05-25T19:25:28.210Z,9.30
2019-05-25T19:27:57.656Z,9.00
2019-05-25T19:30:27.651Z,9.80
2019-05-25T19:32:58.751Z,9.67
2019-05-25T19:35:28.380Z,10.00
2019-05-25T19:37:57.833Z,10.80
2019-05-25T19:40:27.728Z,10.47
2019-05-25T19:42:57.144Z,11.27
2019-05-25T19:45:26.610Z,10.83
2019-05-25T19:47:56.092Z,11.10
2019-05-25T19:50:25.647Z,11.40
2019-05-25T19:52:55.170Z,10.90
2019-05-25T19:55:24.670Z,11.50
2019-05-25T19:57:54.137Z,10.93
2019-05-25T20:00:23.953Z,11.30
2019-05-25T20:02:54.362Z,10.90
2019-05-25T20:05:23.847Z,11.13
2019-05-25T20:07:53.500Z,11.00
2019-05-25T20:10:23.056Z,11.27
2019-05-25T20:12:52.850Z,10.90
2019-05-25T20:15:22.332Z,11.97
2019-05-25T20:17:51.813Z,11.50
2019-05-25T20:20:21.439Z,11.03
2019-05-25T20:22:51.252Z,10.43
2019-05-25T20:25:20.743Z,12.00
2019-05-25T20:27:50.756Z,12.10
2019-05-25T20:30:23.746Z,12.83
2019-05-25T20:32:53.728Z,12.60
2019-05-25T20:35:32.280Z,11.30
2019-05-25T20:37:54.485Z,12.00
2019-05-25T20:40:23.957Z,12.93
2019-05-25T20:42:53.440Z,13.97
2019-05-25T20:45:22.894Z,13.80
2019-05-25T20:47:52.393Z,14.37
2019-05-25T20:50:21.904Z,14.90
2019-05-25T20:52:51.756Z,16.10
2019-05-25T20:55:21.215Z,23.40
2019-05-25T20:57:50.707Z,20.07
2019-05-25T21:00:24.286Z,20.97
2019-05-25T21:03:05.328Z,21.80
2019-05-25T21:05:24.926Z,20.17
2019-05-25T21:07:54.423Z,19.10
2019-05-25T21:10:23.888Z,14.77
2019-05-25T21:12:53.369Z,13.60
2019-05-25T21:15:22.857Z,15.13
2019-05-25T21:17:52.340Z,12.93
2019-05-25T21:20:21.871Z,11.50
2019-05-25T21:22:51.356Z,13.27
2019-05-25T21:25:20.818Z,11.77
2019-05-25T21:27:53.407Z,13.23
2019-05-25T21:30:24.497Z,13.07
2019-05-25T21:32:55.489Z,13.73
2019-05-25T21:35:24.951Z,11.53
2019-05-25T21:37:54.451Z,11.80
2019-05-25T21:40:23.955Z,11.37
2019-05-25T21:42:53.762Z,11.90
2019-05-25T21:45:23.220Z,9.73
2019-05-25T21:47:56.032Z,9.57
2019-05-25T21:50:24.161Z,9.30
2019-05-25T21:52:53.663Z,10.17
2019-05-25T21:55:23.456Z,11.40
2019-05-25T21:57:52.947Z,11.80
2019-05-25T22:00:24.672Z,10.97
2019-05-25T22:02:54.416Z,10.33
2019-05-25T22:05:23.862Z,10.10
2019-05-25T22:07:53.352Z,12.20
2019-05-25T22:10:22.814Z,11.03
2019-05-25T22:12:52.287Z,8.93
2019-05-25T22:15:22.072Z,10.00
2019-05-25T22:17:51.813Z,9.27
2019-05-25T22:20:21.382Z,8.90
2019-05-25T22:22:50.866Z,9.33
2019-05-25T22:25:20.326Z,10.07
2019-05-25T22:27:49.808Z,9.77
2019-05-25T22:30:19.642Z,8.70
2019-05-25T22:32:49.191Z,8.50
2019-05-25T22:35:19.084Z,9.67
2019-05-25T22:37:48.615Z,9.80
2019-05-25T22:40:18.255Z,10.53
2019-05-25T22:42:47.725Z,10.27
2019-05-25T22:45:17.756Z,9.97
2019-05-25T22:47:47.616Z,9.67
2019-05-25T22:50:17.063Z,10.87
2019-05-25T22:52:46.536Z,10.03
2019-05-25T22:55:15.997Z,13.30
2019-05-25T22:57:46.945Z,15.03
2019-05-25T23:00:17.213Z,13.87
2019-05-25T23:02:47.494Z,11.97
2019-05-25T23:05:17.053Z,11.70
2019-05-25T23:07:46.611Z,10.23
2019-05-25T23:10:16.390Z,10.33
2019-05-25T23:12:45.840Z,12.27
2019-05-25T23:15:15.762Z,11.47
2019-05-25T23:17:45.235Z,11.73
2019-05-25T23:20:14.764Z,12.17
2019-05-25T23:22:44.248Z,11.50
2019-05-25T23:25:13.746Z,11.60
2019-05-25T23:27:43.563Z,11.83
2019-05-25T23:30:14.423Z,11.03
2019-05-25T23:32:44.048Z,9.43
2019-05-25T23:35:13.623Z,8.97
2019-05-25T23:37:43.450Z,9.30
2019-05-25T23:40:13.257Z,10.17
2019-05-25T23:42:42.726Z,10.43
2019-05-25T23:45:14.033Z,12.23
2019-05-25T23:47:43.511Z,15.70
2019-05-25T23:50:13.373Z,13.70
2019-05-25T23:52:42.850Z,11.40
2019-05-25T23:55:12.489Z,10.37
2019-05-25T23:57:42.333Z,9.23
